sensor_id;sensor_type;location;lat;lon;timestamp;temperature;humidity
20744;DHT22;56303;52.160;-0.428;2024-03-25T00:00:32;7.00;99.90
20744;DHT22;56303;52.160;-0.428;2024-03-25T00:02:58;7.20;99.90
20744;DHT22;56303;52.160;-0.428;2024-03-25T00:05:24;7.70;99.90
20744;DHT22;56303;52.160;-0.428;2024-03-25T00:07:51;7.50;99.90
20744;DHT22;56303;52.160;-0.428;2024-03-25T00:10:18;7.20;99.90
20744;DHT22;56303;52.160;-0.428;2024-03-25T00:12:46;7.00;99.90
20744;DHT22;56303;52.160;-0.428;2024-03-25T00:15:13;6.80;99.90
20744;DHT22;56303;52.160;-0.428;2024-03-25T00:17:39;6.80;99.90
20744;DHT22;56303;52.160;-0.428;2024-03-25T00:20:05;7.00;99.90
20744;DHT22;56303;52.160;-0.428;2024-03-25T00:22:35;6.90;99.90
20744;DHT22;56303;52.160;-0.428;2024-03-25T00:25:00;7.00;99.90
20744;DHT22;56303;52.160;-0.428;2024-03-25T00:27:26;6.80;99.90
20744;DHT22;56303;52.160;-0.428;2024-03-25T00:29:53;6.70;99.90
20744;DHT22;56303;52.160;-0.428;2024-03-25T00:32:19;7.00;99.90
20744;DHT22;56303;52.160;-0.428;2024-03-25T00:34:45;7.00;99.90
20744;DHT22;56303;52.160;-0.428;2024-03-25T00:37:11;7.20;99.90
20744;DHT22;56303;52.160;-0.428;2024-03-25T00:39:37;7.30;99.90
20744;DHT22;56303;52.160;-0.428;2024-03-25T00:42:03;7.30;99.90
20744;DHT22;56303;52.160;-0.428;2024-03-25T00:44:29;7.60;99.90
20744;DHT22;56303;52.160;-0.428;2024-03-25T00:46:55;7.60;99.90
20744;DHT22;56303;52.160;-0.428;2024-03-25T00:49:21;7.50;99.90
20744;DHT22;56303;52.160;-0.428;2024-03-25T00:51:48;7.20;99.90
20744;DHT22;56303;52.160;-0.428;2024-03-25T00:54:14;7.00;99.90
20744;DHT22;56303;52.160;-0.428;2024-03-25T00:56:40;7.00;99.90
20744;DHT22;56303;52.160;-0.428;2024-03-25T00:59:06;6.90;99.90
20744;DHT22;56303;52.160;-0.428;2024-03-25T01:01:35;7.20;99.90
20744;DHT22;56303;52.160;-0.428;2024-03-25T01:04:04;7.50;99.90
20744;DHT22;56303;52.160;-0.428;2024-03-25T01:06:30;7.70;99.90
20744;DHT22;56303;52.160;-0.428;2024-03-25T01:08:56;7.50;99.90
20744;DHT22;56303;52.160;-0.428;2024-03-25T01:11:22;8.30;99.90
20744;DHT22;56303;52.160;-0.428;2024-03-25T01:13:48;6.90;99.90
20744;DHT22;56303;52.160;-0.428;2024-03-25T01:16:14;6.80;99.90
20744;DHT22;56303;52.160;-0.428;2024-03-25T01:18:40;6.80;99.90
20744;DHT22;56303;52.160;-0.428;2024-03-25T01:21:06;6.80;99.90
20744;DHT22;56303;52.160;-0.428;2024-03-25T01:23:32;7.10;99.90
20744;DHT22;56303;52.160;-0.428;2024-03-25T01:25:58;7.50;99.90
20744;DHT22;56303;52.160;-0.428;2024-03-25T01:28:24;7.80;99.90
20744;DHT22;56303;52.160;-0.428;2024-03-25T01:30:50;8.10;99.90
20744;DHT22;56303;52.160;-0.428;2024-03-25T01:33:16;8.30;99.90
20744;DHT22;56303;52.160;-0.428;2024-03-25T01:35:42;8.40;99.90
20744;DHT22;56303;52.160;-0.428;2024-03-25T01:38:08;8.40;99.90
20744;DHT22;56303;52.160;-0.428;2024-03-25T01:40:34;8.40;99.90
20744;DHT22;56303;52.160;-0.428;2024-03-25T01:43:03;8.10;99.90
20744;DHT22;56303;52.160;-0.428;2024-03-25T01:45:32;7.90;99.90
20744;DHT22;56303;52.160;-0.428;2024-03-25T01:48:03;7.90;99.90
20744;DHT22;56303;52.160;-0.428;2024-03-25T01:50:33;8.00;99.90
20744;DHT22;56303;52.160;-0.428;2024-03-25T01:53:01;7.40;99.90
20744;DHT22;56303;52.160;-0.428;2024-03-25T01:55:29;7.00;99.90
20744;DHT22;56303;52.160;-0.428;2024-03-25T01:57:55;7.00;99.90
20744;DHT22;56303;52.160;-0.428;2024-03-25T02:00:22;7.00;99.90
20744;DHT22;56303;52.160;-0.428;2024-03-25T02:02:50;7.20;99.90
20744;DHT22;56303;52.160;-0.428;2024-03-25T02:05:17;7.20;99.90
20744;DHT22;56303;52.160;-0.428;2024-03-25T02:07:44;7.30;99.90
20744;DHT22;56303;52.160;-0.428;2024-03-25T02:10:11;7.40;99.90
20744;DHT22;56303;52.160;-0.428;2024-03-25T02:12:43;7.30;99.90
20744;DHT22;56303;52.160;-0.428;2024-03-25T02:15:10;7.30;99.90
20744;DHT22;56303;52.160;-0.428;2024-03-25T02:17:37;7.30;99.90
20744;DHT22;56303;52.160;-0.428;2024-03-25T02:20:04;7.50;99.90
20744;DHT22;56303;52.160;-0.428;2024-03-25T02:22:36;7.40;99.90
20744;DHT22;56303;52.160;-0.428;2024-03-25T02:25:06;7.40;99.90
20744;DHT22;56303;52.160;-0.428;2024-03-25T02:27:34;7.20;99.90
20744;DHT22;56303;52.160;-0.428;2024-03-25T02:30:07;7.10;99.90
20744;DHT22;56303;52.160;-0.428;2024-03-25T02:32:34;6.80;99.90
20744;DHT22;56303;52.160;-0.428;2024-03-25T02:35:01;6.50;99.90
20744;DHT22;56303;52.160;-0.428;2024-03-25T02:37:28;6.40;99.90
20744;DHT22;56303;52.160;-0.428;2024-03-25T02:39:57;6.30;99.90
20744;DHT22;56303;52.160;-0.428;2024-03-25T02:42:24;6.30;99.90
20744;DHT22;56303;52.160;-0.428;2024-03-25T02:44:50;6.30;99.90
20744;DHT22;56303;52.160;-0.428;2024-03-25T02:47:16;6.40;99.90
20744;DHT22;56303;52.160;-0.428;2024-03-25T02:49:43;6.60;99.90
20744;DHT22;56303;52.160;-0.428;2024-03-25T02:52:09;6.80;99.90
20744;DHT22;56303;52.160;-0.428;2024-03-25T02:54:35;7.00;99.90
20744;DHT22;56303;52.160;-0.428;2024-03-25T02:57:00;6.90;99.90
20744;DHT22;56303;52.160;-0.428;2024-03-25T02:59:26;7.00;99.90
20744;DHT22;56303;52.160;-0.428;2024-03-25T03:01:52;6.90;99.90
20744;DHT22;56303;52.160;-0.428;2024-03-25T03:04:18;7.00;99.90
20744;DHT22;56303;52.160;-0.428;2024-03-25T03:06:44;7.10;99.90
20744;DHT22;56303;52.160;-0.428;2024-03-25T03:09:10;7.00;99.90
20744;DHT22;56303;52.160;-0.428;2024-03-25T03:11:36;6.80;99.90
20744;DHT22;56303;52.160;-0.428;2024-03-25T03:14:02;6.70;99.90
20744;DHT22;56303;52.160;-0.428;2024-03-25T03:16:28;6.80;99.90
20744;DHT22;56303;52.160;-0.428;2024-03-25T03:18:55;6.80;99.90
20744;DHT22;56303;52.160;-0.428;2024-03-25T03:21:21;6.70;99.90
20744;DHT22;56303;52.160;-0.428;2024-03-25T03:23:47;6.70;99.90
20744;DHT22;56303;52.160;-0.428;2024-03-25T03:26:12;6.80;99.90
20744;DHT22;56303;52.160;-0.428;2024-03-25T03:28:40;6.90;99.90
20744;DHT22;56303;52.160;-0.428;2024-03-25T03:31:06;7.00;99.90
20744;DHT22;56303;52.160;-0.428;2024-03-25T03:33:32;7.00;99.90
20744;DHT22;56303;52.160;-0.428;2024-03-25T03:35:58;7.00;99.90
20744;DHT22;56303;52.160;-0.428;2024-03-25T03:38:24;6.80;99.90
20744;DHT22;56303;52.160;-0.428;2024-03-25T03:41:02;6.80;99.90
20744;DHT22;56303;52.160;-0.428;2024-03-25T03:43:28;6.60;99.90
20744;DHT22;56303;52.160;-0.428;2024-03-25T03:45:54;6.50;99.90
20744;DHT22;56303;52.160;-0.428;2024-03-25T03:48:20;6.60;99.90
20744;DHT22;56303;52.160;-0.428;2024-03-25T03:50:45;6.50;99.90
20744;DHT22;56303;52.160;-0.428;2024-03-25T03:53:11;6.30;99.90
20744;DHT22;56303;52.160;-0.428;2024-03-25T03:55:38;6.30;99.90
20744;DHT22;56303;52.160;-0.428;2024-03-25T03:58:04;6.50;99.90
20744;DHT22;56303;52.160;-0.428;2024-03-25T04:00:33;6.60;99.90
20744;DHT22;56303;52.160;-0.428;2024-03-25T04:03:01;6.70;99.90
20744;DHT22;56303;52.160;-0.428;2024-03-25T04:05:30;6.70;99.90
20744;DHT22;56303;52.160;-0.428;2024-03-25T04:07:56;6.80;99.90
20744;DHT22;56303;52.160;-0.428;2024-03-25T04:10:23;6.80;99.90
20744;DHT22;56303;52.160;-0.428;2024-03-25T04:12:49;6.90;99.90
20744;DHT22;56303;52.160;-0.428;2024-03-25T04:15:14;7.10;99.90
20744;DHT22;56303;52.160;-0.428;2024-03-25T04:17:46;7.30;99.90
20744;DHT22;56303;52.160;-0.428;2024-03-25T04:20:15;7.50;99.90
20744;DHT22;56303;52.160;-0.428;2024-03-25T04:22:42;7.40;99.90
20744;DHT22;56303;52.160;-0.428;2024-03-25T04:25:09;7.50;99.90
20744;DHT22;56303;52.160;-0.428;2024-03-25T04:27:40;7.50;99.90
20744;DHT22;56303;52.160;-0.428;2024-03-25T04:30:07;7.30;99.90
20744;DHT22;56303;52.160;-0.428;2024-03-25T04:32:34;7.30;99.90
20744;DHT22;56303;52.160;-0.428;2024-03-25T04:35:01;7.30;99.90
20744;DHT22;56303;52.160;-0.428;2024-03-25T04:37:27;7.30;99.90
20744;DHT22;56303;52.160;-0.428;2024-03-25T04:39:54;7.30;99.90
20744;DHT22;56303;52.160;-0.428;2024-03-25T04:42:21;7.40;99.90
20744;DHT22;56303;52.160;-0.428;2024-03-25T04:44:47;7.80;99.90
20744;DHT22;56303;52.160;-0.428;2024-03-25T04:47:13;7.90;99.90
20744;DHT22;56303;52.160;-0.428;2024-03-25T04:49:41;8.00;99.90
20744;DHT22;56303;52.160;-0.428;2024-03-25T04:52:07;8.00;99.90
20744;DHT22;56303;52.160;-0.428;2024-03-25T04:54:33;8.20;99.90
20744;DHT22;56303;52.160;-0.428;2024-03-25T04:56:59;8.30;99.90
20744;DHT22;56303;52.160;-0.428;2024-03-25T04:59:25;8.50;99.90
20744;DHT22;56303;52.160;-0.428;2024-03-25T05:01:51;8.70;99.90
20744;DHT22;56303;52.160;-0.428;2024-03-25T05:04:18;8.20;99.90
20744;DHT22;56303;52.160;-0.428;2024-03-25T05:06:44;8.00;99.90
20744;DHT22;56303;52.160;-0.428;2024-03-25T05:09:10;7.70;99.90
20744;DHT22;56303;52.160;-0.428;2024-03-25T05:11:36;7.60;99.90
20744;DHT22;56303;52.160;-0.428;2024-03-25T05:14:02;7.80;99.90
20744;DHT22;56303;52.160;-0.428;2024-03-25T05:16:28;7.80;99.90
20744;DHT22;56303;52.160;-0.428;2024-03-25T05:18:53;7.90;99.90
20744;DHT22;56303;52.160;-0.428;2024-03-25T05:21:19;7.90;99.90
20744;DHT22;56303;52.160;-0.428;2024-03-25T05:23:45;7.90;99.90
20744;DHT22;56303;52.160;-0.428;2024-03-25T05:26:11;7.80;99.90
20744;DHT22;56303;52.160;-0.428;2024-03-25T05:28:37;7.70;99.90
20744;DHT22;56303;52.160;-0.428;2024-03-25T05:31:07;7.60;99.90
20744;DHT22;56303;52.160;-0.428;2024-03-25T05:33:33;7.60;99.90
20744;DHT22;56303;52.160;-0.428;2024-03-25T05:35:59;7.70;99.90
20744;DHT22;56303;52.160;-0.428;2024-03-25T05:38:28;7.90;99.90
20744;DHT22;56303;52.160;-0.428;2024-03-25T05:40:54;8.30;99.90
20744;DHT22;56303;52.160;-0.428;2024-03-25T05:43:20;8.40;99.90
20744;DHT22;56303;52.160;-0.428;2024-03-25T05:45:53;8.60;99.90
20744;DHT22;56303;52.160;-0.428;2024-03-25T05:48:19;8.70;99.90
20744;DHT22;56303;52.160;-0.428;2024-03-25T05:50:45;8.80;99.90
20744;DHT22;56303;52.160;-0.428;2024-03-25T05:53:12;8.90;99.90
20744;DHT22;56303;52.160;-0.428;2024-03-25T05:55:38;9.00;99.90
20744;DHT22;56303;52.160;-0.428;2024-03-25T05:58:04;9.00;99.90
20744;DHT22;56303;52.160;-0.428;2024-03-25T06:00:30;9.00;99.90
20744;DHT22;56303;52.160;-0.428;2024-03-25T06:02:59;9.10;99.90
20744;DHT22;56303;52.160;-0.428;2024-03-25T06:05:24;9.30;99.90
20744;DHT22;56303;52.160;-0.428;2024-03-25T06:07:50;9.10;99.90
20744;DHT22;56303;52.160;-0.428;2024-03-25T06:10:16;9.40;99.90
20744;DHT22;56303;52.160;-0.428;2024-03-25T06:12:42;9.40;99.90
20744;DHT22;56303;52.160;-0.428;2024-03-25T06:15:08;9.30;99.90
20744;DHT22;56303;52.160;-0.428;2024-03-25T06:17:34;9.30;99.90
20744;DHT22;56303;52.160;-0.428;2024-03-25T06:20:00;9.00;99.90
20744;DHT22;56303;52.160;-0.428;2024-03-25T06:22:26;9.20;99.90
20744;DHT22;56303;52.160;-0.428;2024-03-25T06:24:52;9.10;99.90
20744;DHT22;56303;52.160;-0.428;2024-03-25T06:27:19;9.10;99.90
20744;DHT22;56303;52.160;-0.428;2024-03-25T06:29:45;9.40;99.90
20744;DHT22;56303;52.160;-0.428;2024-03-25T06:32:12;9.40;99.90
20744;DHT22;56303;52.160;-0.428;2024-03-25T06:34:56;9.50;99.90
20744;DHT22;56303;52.160;-0.428;2024-03-25T06:37:25;9.50;99.90
20744;DHT22;56303;52.160;-0.428;2024-03-25T06:39:51;9.60;99.90
20744;DHT22;56303;52.160;-0.428;2024-03-25T06:42:19;9.60;99.90
20744;DHT22;56303;52.160;-0.428;2024-03-25T06:44:45;9.60;99.90
20744;DHT22;56303;52.160;-0.428;2024-03-25T06:47:15;9.80;99.90
20744;DHT22;56303;52.160;-0.428;2024-03-25T06:49:41;9.80;99.90
20744;DHT22;56303;52.160;-0.428;2024-03-25T06:52:07;9.70;99.90
20744;DHT22;56303;52.160;-0.428;2024-03-25T06:54:33;9.80;99.90
20744;DHT22;56303;52.160;-0.428;2024-03-25T06:56:58;9.70;99.90
20744;DHT22;56303;52.160;-0.428;2024-03-25T06:59:24;9.60;99.90
20744;DHT22;56303;52.160;-0.428;2024-03-25T07:01:51;9.60;99.90
20744;DHT22;56303;52.160;-0.428;2024-03-25T07:04:17;9.50;99.90
20744;DHT22;56303;52.160;-0.428;2024-03-25T07:06:42;9.40;99.90
20744;DHT22;56303;52.160;-0.428;2024-03-25T07:09:08;9.50;99.90
20744;DHT22;56303;52.160;-0.428;2024-03-25T07:11:36;9.50;99.90
20744;DHT22;56303;52.160;-0.428;2024-03-25T07:14:02;9.60;99.90
20744;DHT22;56303;52.160;-0.428;2024-03-25T07:16:28;9.60;99.90
20744;DHT22;56303;52.160;-0.428;2024-03-25T07:18:54;9.60;99.90
20744;DHT22;56303;52.160;-0.428;2024-03-25T07:21:20;9.60;99.90
20744;DHT22;56303;52.160;-0.428;2024-03-25T07:23:46;9.40;99.90
20744;DHT22;56303;52.160;-0.428;2024-03-25T07:26:12;9.50;99.90
20744;DHT22;56303;52.160;-0.428;2024-03-25T07:28:38;9.60;99.90
20744;DHT22;56303;52.160;-0.428;2024-03-25T07:31:04;9.50;99.90
20744;DHT22;56303;52.160;-0.428;2024-03-25T07:33:30;9.60;99.90
20744;DHT22;56303;52.160;-0.428;2024-03-25T07:35:55;9.60;99.90
20744;DHT22;56303;52.160;-0.428;2024-03-25T07:38:21;9.70;99.90
20744;DHT22;56303;52.160;-0.428;2024-03-25T07:40:47;10.00;99.90
20744;DHT22;56303;52.160;-0.428;2024-03-25T07:43:13;9.70;99.90
20744;DHT22;56303;52.160;-0.428;2024-03-25T07:45:39;10.00;99.90
20744;DHT22;56303;52.160;-0.428;2024-03-25T07:48:05;9.80;99.90
20744;DHT22;56303;52.160;-0.428;2024-03-25T07:50:33;9.70;99.90
20744;DHT22;56303;52.160;-0.428;2024-03-25T07:52:59;10.00;99.90
20744;DHT22;56303;52.160;-0.428;2024-03-25T07:55:25;10.10;99.90
20744;DHT22;56303;52.160;-0.428;2024-03-25T07:57:51;10.00;99.90
20744;DHT22;56303;52.160;-0.428;2024-03-25T08:00:17;9.70;99.90
20744;DHT22;56303;52.160;-0.428;2024-03-25T08:02:43;9.40;99.90
20744;DHT22;56303;52.160;-0.428;2024-03-25T08:05:09;10.00;99.90
20744;DHT22;56303;52.160;-0.428;2024-03-25T08:07:35;10.40;99.90
20744;DHT22;56303;52.160;-0.428;2024-03-25T08:10:01;10.50;99.90
20744;DHT22;56303;52.160;-0.428;2024-03-25T08:12:29;10.40;99.90
20744;DHT22;56303;52.160;-0.428;2024-03-25T08:14:55;10.60;99.90
20744;DHT22;56303;52.160;-0.428;2024-03-25T08:17:21;10.80;99.90
20744;DHT22;56303;52.160;-0.428;2024-03-25T08:19:47;11.00;99.90
20744;DHT22;56303;52.160;-0.428;2024-03-25T08:22:13;10.60;99.90
20744;DHT22;56303;52.160;-0.428;2024-03-25T08:24:38;10.90;99.90
20744;DHT22;56303;52.160;-0.428;2024-03-25T08:27:04;11.10;99.90
20744;DHT22;56303;52.160;-0.428;2024-03-25T08:29:30;11.10;99.90
20744;DHT22;56303;52.160;-0.428;2024-03-25T08:31:56;11.20;99.90
20744;DHT22;56303;52.160;-0.428;2024-03-25T08:34:22;10.90;99.90
20744;DHT22;56303;52.160;-0.428;2024-03-25T08:36:48;11.10;99.90
20744;DHT22;56303;52.160;-0.428;2024-03-25T08:39:14;11.40;99.90
20744;DHT22;56303;52.160;-0.428;2024-03-25T08:41:39;11.50;99.90
20744;DHT22;56303;52.160;-0.428;2024-03-25T08:44:05;11.40;99.90
20744;DHT22;56303;52.160;-0.428;2024-03-25T08:46:31;11.50;99.90
20744;DHT22;56303;52.160;-0.428;2024-03-25T08:48:58;11.50;99.90
20744;DHT22;56303;52.160;-0.428;2024-03-25T08:51:24;11.60;99.90
20744;DHT22;56303;52.160;-0.428;2024-03-25T08:53:50;11.70;99.90
20744;DHT22;56303;52.160;-0.428;2024-03-25T08:56:15;12.00;99.90
20744;DHT22;56303;52.160;-0.428;2024-03-25T08:58:41;11.90;99.90
20744;DHT22;56303;52.160;-0.428;2024-03-25T09:01:07;12.10;99.90
20744;DHT22;56303;52.160;-0.428;2024-03-25T09:03:35;12.10;99.90
20744;DHT22;56303;52.160;-0.428;2024-03-25T09:06:00;12.00;99.90
20744;DHT22;56303;52.160;-0.428;2024-03-25T09:08:26;11.60;99.90
20744;DHT22;56303;52.160;-0.428;2024-03-25T09:10:52;11.90;99.90
20744;DHT22;56303;52.160;-0.428;2024-03-25T09:13:32;12.00;99.90
20744;DHT22;56303;52.160;-0.428;2024-03-25T09:15:58;12.10;99.90
20744;DHT22;56303;52.160;-0.428;2024-03-25T09:18:24;12.20;99.90
20744;DHT22;56303;52.160;-0.428;2024-03-25T09:20:50;12.00;99.90
20744;DHT22;56303;52.160;-0.428;2024-03-25T09:23:16;11.80;99.90
20744;DHT22;56303;52.160;-0.428;2024-03-25T09:25:51;11.50;99.90
20744;DHT22;56303;52.160;-0.428;2024-03-25T09:28:17;11.60;99.90
20744;DHT22;56303;52.160;-0.428;2024-03-25T09:30:43;11.60;99.90
20744;DHT22;56303;52.160;-0.428;2024-03-25T09:33:09;11.30;99.90
20744;DHT22;56303;52.160;-0.428;2024-03-25T09:35:36;11.60;99.90
20744;DHT22;56303;52.160;-0.428;2024-03-25T09:38:03;11.50;99.90
20744;DHT22;56303;52.160;-0.428;2024-03-25T09:40:29;11.50;99.90
20744;DHT22;56303;52.160;-0.428;2024-03-25T09:42:59;11.70;99.90
20744;DHT22;56303;52.160;-0.428;2024-03-25T09:45:29;11.60;99.90
20744;DHT22;56303;52.160;-0.428;2024-03-25T09:47:55;11.10;99.90
20744;DHT22;56303;52.160;-0.428;2024-03-25T09:50:22;11.30;99.90
20744;DHT22;56303;52.160;-0.428;2024-03-25T09:52:51;11.50;99.90
20744;DHT22;56303;52.160;-0.428;2024-03-25T09:55:18;11.50;99.90
20744;DHT22;56303;52.160;-0.428;2024-03-25T09:57:44;11.80;99.90
20744;DHT22;56303;52.160;-0.428;2024-03-25T10:00:10;11.80;99.90
20744;DHT22;56303;52.160;-0.428;2024-03-25T10:02:38;12.10;99.90
20744;DHT22;56303;52.160;-0.428;2024-03-25T10:05:05;12.40;99.90
20744;DHT22;56303;52.160;-0.428;2024-03-25T10:07:31;12.40;99.90
20744;DHT22;56303;52.160;-0.428;2024-03-25T10:09:57;12.20;99.90
20744;DHT22;56303;52.160;-0.428;2024-03-25T10:12:24;11.70;99.90
20744;DHT22;56303;52.160;-0.428;2024-03-25T10:14:50;11.50;99.90
20744;DHT22;56303;52.160;-0.428;2024-03-25T10:17:16;11.70;99.90
20744;DHT22;56303;52.160;-0.428;2024-03-25T10:19:42;11.70;99.90
20744;DHT22;56303;52.160;-0.428;2024-03-25T10:22:09;11.70;99.90
20744;DHT22;56303;52.160;-0.428;2024-03-25T10:24:42;11.80;99.90
20744;DHT22;56303;52.160;-0.428;2024-03-25T10:27:18;11.80;99.90
20744;DHT22;56303;52.160;-0.428;2024-03-25T10:29:46;11.60;99.90
20744;DHT22;56303;52.160;-0.428;2024-03-25T10:32:15;11.60;99.90
20744;DHT22;56303;52.160;-0.428;2024-03-25T10:34:41;11.90;99.90
20744;DHT22;56303;52.160;-0.428;2024-03-25T10:37:11;12.30;99.90
20744;DHT22;56303;52.160;-0.428;2024-03-25T10:39:47;12.50;99.90
20744;DHT22;56303;52.160;-0.428;2024-03-25T10:42:15;12.50;99.90
20744;DHT22;56303;52.160;-0.428;2024-03-25T10:44:44;12.50;99.90
20744;DHT22;56303;52.160;-0.428;2024-03-25T10:47:12;12.30;99.90
20744;DHT22;56303;52.160;-0.428;2024-03-25T10:49:58;12.60;99.90
20744;DHT22;56303;52.160;-0.428;2024-03-25T10:52:26;12.80;99.90
20744;DHT22;56303;52.160;-0.428;2024-03-25T10:54:52;12.90;99.90
20744;DHT22;56303;52.160;-0.428;2024-03-25T10:57:23;12.90;99.90
20744;DHT22;56303;52.160;-0.428;2024-03-25T10:59:49;12.70;99.90
20744;DHT22;56303;52.160;-0.428;2024-03-25T11:02:15;13.10;99.90
20744;DHT22;56303;52.160;-0.428;2024-03-25T11:04:44;12.60;99.90
20744;DHT22;56303;52.160;-0.428;2024-03-25T11:07:11;12.60;99.90
20744;DHT22;56303;52.160;-0.428;2024-03-25T11:09:41;12.60;99.90
20744;DHT22;56303;52.160;-0.428;2024-03-25T11:12:11;12.70;99.90
20744;DHT22;56303;52.160;-0.428;2024-03-25T11:14:38;12.40;99.90
20744;DHT22;56303;52.160;-0.428;2024-03-25T11:17:14;12.30;99.90
20744;DHT22;56303;52.160;-0.428;2024-03-25T11:19:41;11.80;99.90
20744;DHT22;56303;52.160;-0.428;2024-03-25T11:22:09;11.60;99.90
20744;DHT22;56303;52.160;-0.428;2024-03-25T11:24:36;11.70;99.90
20744;DHT22;56303;52.160;-0.428;2024-03-25T11:27:06;12.00;99.90
20744;DHT22;56303;52.160;-0.428;2024-03-25T11:29:36;11.70;99.90
20744;DHT22;56303;52.160;-0.428;2024-03-25T11:32:04;11.40;99.90
20744;DHT22;56303;52.160;-0.428;2024-03-25T11:34:30;11.10;99.90
20744;DHT22;56303;52.160;-0.428;2024-03-25T11:36:57;11.20;99.90
20744;DHT22;56303;52.160;-0.428;2024-03-25T11:39:23;11.40;99.90
20744;DHT22;56303;52.160;-0.428;2024-03-25T11:41:50;11.40;99.90
20744;DHT22;56303;52.160;-0.428;2024-03-25T11:44:16;11.30;99.90
20744;DHT22;56303;52.160;-0.428;2024-03-25T11:46:43;11.50;99.90
20744;DHT22;56303;52.160;-0.428;2024-03-25T11:49:14;11.70;99.90
20744;DHT22;56303;52.160;-0.428;2024-03-25T11:51:42;11.70;99.90
20744;DHT22;56303;52.160;-0.428;2024-03-25T11:54:10;11.90;99.90
20744;DHT22;56303;52.160;-0.428;2024-03-25T11:56:37;11.90;99.90
20744;DHT22;56303;52.160;-0.428;2024-03-25T11:59:06;12.20;99.90
20744;DHT22;56303;52.160;-0.428;2024-03-25T12:01:32;11.70;99.90
20744;DHT22;56303;52.160;-0.428;2024-03-25T12:04:12;12.00;99.90
20744;DHT22;56303;52.160;-0.428;2024-03-25T12:06:38;11.60;99.90
20744;DHT22;56303;52.160;-0.428;2024-03-25T12:09:04;11.30;99.90
20744;DHT22;56303;52.160;-0.428;2024-03-25T12:11:48;11.70;99.90
20744;DHT22;56303;52.160;-0.428;2024-03-25T12:14:15;11.30;99.90
20744;DHT22;56303;52.160;-0.428;2024-03-25T12:16:42;11.20;99.90
20744;DHT22;56303;52.160;-0.428;2024-03-25T12:19:08;11.30;99.90
20744;DHT22;56303;52.160;-0.428;2024-03-25T12:21:34;11.60;99.90
20744;DHT22;56303;52.160;-0.428;2024-03-25T12:24:00;12.00;99.90
20744;DHT22;56303;52.160;-0.428;2024-03-25T12:26:26;12.50;99.90
20744;DHT22;56303;52.160;-0.428;2024-03-25T12:28:52;13.90;99.90
20744;DHT22;56303;52.160;-0.428;2024-03-25T12:31:18;13.10;99.90
20744;DHT22;56303;52.160;-0.428;2024-03-25T12:33:44;13.30;99.90
20744;DHT22;56303;52.160;-0.428;2024-03-25T12:36:13;13.20;99.90
20744;DHT22;56303;52.160;-0.428;2024-03-25T12:38:39;13.30;99.90
20744;DHT22;56303;52.160;-0.428;2024-03-25T12:41:10;13.30;99.90
20744;DHT22;56303;52.160;-0.428;2024-03-25T12:43:42;13.20;99.90
20744;DHT22;56303;52.160;-0.428;2024-03-25T12:46:08;13.10;99.90
20744;DHT22;56303;52.160;-0.428;2024-03-25T12:48:36;13.10;99.90
20744;DHT22;56303;52.160;-0.428;2024-03-25T12:51:02;13.20;99.90
20744;DHT22;56303;52.160;-0.428;2024-03-25T12:53:28;13.50;99.90
20744;DHT22;56303;52.160;-0.428;2024-03-25T12:55:54;13.60;99.90
20744;DHT22;56303;52.160;-0.428;2024-03-25T12:58:19;13.20;99.90
20744;DHT22;56303;52.160;-0.428;2024-03-25T13:00:45;13.60;99.90
20744;DHT22;56303;52.160;-0.428;2024-03-25T13:03:12;14.10;99.90
20744;DHT22;56303;52.160;-0.428;2024-03-25T13:05:38;14.70;99.90
20744;DHT22;56303;52.160;-0.428;2024-03-25T13:08:05;14.90;99.90
20744;DHT22;56303;52.160;-0.428;2024-03-25T13:10:31;14.50;99.90
20744;DHT22;56303;52.160;-0.428;2024-03-25T13:12:57;14.60;99.90
20744;DHT22;56303;52.160;-0.428;2024-03-25T13:15:23;14.10;99.90
20744;DHT22;56303;52.160;-0.428;2024-03-25T13:17:50;13.90;99.90
20744;DHT22;56303;52.160;-0.428;2024-03-25T13:20:16;13.90;99.90
20744;DHT22;56303;52.160;-0.428;2024-03-25T13:22:42;13.90;99.90
20744;DHT22;56303;52.160;-0.428;2024-03-25T13:25:10;14.10;99.90
20744;DHT22;56303;52.160;-0.428;2024-03-25T13:27:36;14.70;99.90
20744;DHT22;56303;52.160;-0.428;2024-03-25T13:30:05;14.80;99.90
20744;DHT22;56303;52.160;-0.428;2024-03-25T13:32:31;14.60;99.90
20744;DHT22;56303;52.160;-0.428;2024-03-25T13:34:57;14.80;99.90
20744;DHT22;56303;52.160;-0.428;2024-03-25T13:37:23;14.60;99.90
20744;DHT22;56303;52.160;-0.428;2024-03-25T13:39:50;14.40;99.90
20744;DHT22;56303;52.160;-0.428;2024-03-25T13:42:16;14.50;99.90
20744;DHT22;56303;52.160;-0.428;2024-03-25T13:44:42;14.50;99.90
20744;DHT22;56303;52.160;-0.428;2024-03-25T13:47:08;14.40;99.90
20744;DHT22;56303;52.160;-0.428;2024-03-25T13:49:34;13.30;99.90
20744;DHT22;56303;52.160;-0.428;2024-03-25T13:52:00;13.20;99.90
20744;DHT22;56303;52.160;-0.428;2024-03-25T13:54:30;13.30;99.90
20744;DHT22;56303;52.160;-0.428;2024-03-25T13:56:56;13.50;99.90
20744;DHT22;56303;52.160;-0.428;2024-03-25T13:59:22;13.30;99.90
20744;DHT22;56303;52.160;-0.428;2024-03-25T14:01:48;13.30;99.90
20744;DHT22;56303;52.160;-0.428;2024-03-25T14:04:14;13.70;99.90
20744;DHT22;56303;52.160;-0.428;2024-03-25T14:06:41;13.90;99.90
20744;DHT22;56303;52.160;-0.428;2024-03-25T14:09:10;13.90;99.90
20744;DHT22;56303;52.160;-0.428;2024-03-25T14:11:36;13.40;99.90
20744;DHT22;56303;52.160;-0.428;2024-03-25T14:14:02;13.70;99.90
20744;DHT22;56303;52.160;-0.428;2024-03-25T14:16:28;13.10;99.90
20744;DHT22;56303;52.160;-0.428;2024-03-25T14:18:55;13.30;99.90
20744;DHT22;56303;52.160;-0.428;2024-03-25T14:21:20;13.60;99.90
20744;DHT22;56303;52.160;-0.428;2024-03-25T14:23:47;13.20;99.90
20744;DHT22;56303;52.160;-0.428;2024-03-25T14:26:13;13.10;99.90
20744;DHT22;56303;52.160;-0.428;2024-03-25T14:28:42;13.30;99.90
20744;DHT22;56303;52.160;-0.428;2024-03-25T14:31:08;13.50;99.90
20744;DHT22;56303;52.160;-0.428;2024-03-25T14:33:35;13.20;99.90
20744;DHT22;56303;52.160;-0.428;2024-03-25T14:36:01;13.60;99.90
20744;DHT22;56303;52.160;-0.428;2024-03-25T14:38:29;13.70;99.90
20744;DHT22;56303;52.160;-0.428;2024-03-25T14:40:55;14.00;99.90
20744;DHT22;56303;52.160;-0.428;2024-03-25T14:43:22;13.80;99.90
20744;DHT22;56303;52.160;-0.428;2024-03-25T14:45:48;13.50;99.90
20744;DHT22;56303;52.160;-0.428;2024-03-25T14:48:14;12.90;99.90
20744;DHT22;56303;52.160;-0.428;2024-03-25T14:50:40;13.50;99.90
20744;DHT22;56303;52.160;-0.428;2024-03-25T14:53:06;13.60;99.90
20744;DHT22;56303;52.160;-0.428;2024-03-25T14:55:32;12.80;99.90
20744;DHT22;56303;52.160;-0.428;2024-03-25T14:57:58;12.50;99.90
20744;DHT22;56303;52.160;-0.428;2024-03-25T15:00:24;12.30;99.90
20744;DHT22;56303;52.160;-0.428;2024-03-25T15:02:53;12.80;99.90
20744;DHT22;56303;52.160;-0.428;2024-03-25T15:05:20;12.80;99.90
20744;DHT22;56303;52.160;-0.428;2024-03-25T15:07:46;12.80;99.90
20744;DHT22;56303;52.160;-0.428;2024-03-25T15:10:13;12.90;99.90
20744;DHT22;56303;52.160;-0.428;2024-03-25T15:12:39;13.30;99.90
20744;DHT22;56303;52.160;-0.428;2024-03-25T15:15:06;12.20;99.90
20744;DHT22;56303;52.160;-0.428;2024-03-25T15:17:34;12.00;99.90
20744;DHT22;56303;52.160;-0.428;2024-03-25T15:20:00;11.80;99.90